createdAt,value
2022-09-26T00:01:37.969Z,17.44
2022-09-26T00:04:23.269Z,17.05
2022-09-26T00:06:55.069Z,16.74
2022-09-26T00:09:26.414Z,16.79
2022-09-26T00:11:54.226Z,16.97
2022-09-26T00:14:26.160Z,17.70
2022-09-26T00:16:55.113Z,17.69
2022-09-26T00:19:23.021Z,18.14
2022-09-26T00:21:50.295Z,18.00
2022-09-26T00:24:17.668Z,17.42
2022-09-26T00:26:45.003Z,17.65
2022-09-26T00:29:16.517Z,18.06
2022-09-26T00:31:46.140Z,18.07
2022-09-26T00:34:17.947Z,17.93
2022-09-26T00:36:45.294Z,17.68
2022-09-26T00:39:15.834Z,17.68
2022-09-26T00:41:44.040Z,17.35
2022-09-26T00:44:50.134Z,17.36
2022-09-26T00:47:26.993Z,17.31
2022-09-26T00:50:26.750Z,17.39
2022-09-26T00:53:06.997Z,17.90
2022-09-26T00:55:45.331Z,17.41
2022-09-26T00:58:43.125Z,17.31
2022-09-26T01:01:11.027Z,17.11
2022-09-26T01:03:44.570Z,16.99
2022-09-26T01:06:12.715Z,16.69
2022-09-26T01:09:09.001Z,17.50
2022-09-26T01:11:42.415Z,17.17
2022-09-26T01:14:13.489Z,17.59
2022-09-26T01:16:48.985Z,17.58
2022-09-26T01:19:31.140Z,17.59
2022-09-26T01:22:19.337Z,17.55
2022-09-26T01:25:11.759Z,17.44
2022-09-26T01:28:00.087Z,16.56
2022-09-26T01:30:42.674Z,16.82
2022-09-26T01:33:09.876Z,17.25
2022-09-26T01:36:17.915Z,17.77
2022-09-26T01:39:23.429Z,18.18
2022-09-26T01:42:18.350Z,17.16
2022-09-26T01:45:26.696Z,16.93
2022-09-26T01:48:13.649Z,16.62
2022-09-26T01:51:21.333Z,16.86
2022-09-26T01:54:03.084Z,17.65
2022-09-26T01:56:40.574Z,18.04
2022-09-26T01:59:30.808Z,18.01
2022-09-26T02:02:08.512Z,17.39
2022-09-26T02:04:44.729Z,17.65
2022-09-26T02:07:32.215Z,17.73
2022-09-26T02:10:13.406Z,17.63
2022-09-26T02:12:45.802Z,17.66
2022-09-26T02:15:19.884Z,17.78
2022-09-26T02:17:58.534Z,17.86
2022-09-26T02:20:38.319Z,17.69
2022-09-26T02:23:06.172Z,17.40
2022-09-26T02:25:34.634Z,17.79
2022-09-26T02:28:03.948Z,18.17
2022-09-26T02:30:31.202Z,18.48
2022-09-26T02:33:02.190Z,18.46
2022-09-26T02:35:48.070Z,18.70
2022-09-26T02:38:15.124Z,18.77
2022-09-26T02:40:56.786Z,18.81
2022-09-26T02:44:09.268Z,18.95
2022-09-26T02:47:17.708Z,18.69
2022-09-26T02:50:09.008Z,18.41
2022-09-26T02:53:02.484Z,18.60
2022-09-26T02:55:51.881Z,18.46
2022-09-26T02:58:35.170Z,17.70
2022-09-26T03:01:16.017Z,17.94
2022-09-26T03:04:06.358Z,17.79
2022-09-26T03:06:47.113Z,17.85
2022-09-26T03:09:17.948Z,17.98
2022-09-26T03:11:48.773Z,18.16
2022-09-26T03:14:21.292Z,18.23
2022-09-26T03:16:51.402Z,17.91
2022-09-26T03:19:32.575Z,18.08
2022-09-26T03:22:00.149Z,18.18
2022-09-26T03:24:30.302Z,18.10
2022-09-26T03:27:04.528Z,18.64
2022-09-26T03:29:33.123Z,18.51
2022-09-26T03:32:04.565Z,18.34
2022-09-26T03:34:35.119Z,17.98
2022-09-26T03:37:02.253Z,17.83
2022-09-26T03:39:33.304Z,18.56
2022-09-26T03:42:02.159Z,18.71
2022-09-26T03:44:30.328Z,18.58
2022-09-26T03:47:02.329Z,18.58
2022-09-26T03:49:30.167Z,18.59
2022-09-26T03:51:57.256Z,18.46
2022-09-26T03:54:24.433Z,18.51
2022-09-26T03:56:51.552Z,18.60
2022-09-26T03:59:18.629Z,18.63
2022-09-26T04:01:45.781Z,18.35
2022-09-26T04:04:15.409Z,18.27
2022-09-26T04:06:45.014Z,18.30
2022-09-26T04:09:16.806Z,18.38
2022-09-26T04:11:44.213Z,18.73
2022-09-26T04:14:11.381Z,18.71
2022-09-26T04:16:38.596Z,18.66
2022-09-26T04:19:08.351Z,18.85
2022-09-26T04:21:43.025Z,18.75
2022-09-26T04:24:17.820Z,18.79
2022-09-26T04:26:45.681Z,18.69
2022-09-26T04:29:13.477Z,18.77
2022-09-26T04:31:41.257Z,18.85
2022-09-26T04:34:11.637Z,19.12
2022-09-26T04:36:39.284Z,19.25
2022-09-26T04:39:06.820Z,19.25
2022-09-26T04:41:34.020Z,19.40
2022-09-26T04:44:06.324Z,19.18
2022-09-26T04:46:34.018Z,19.41
2022-09-26T04:49:02.000Z,19.32
2022-09-26T04:51:32.777Z,19.30
2022-09-26T04:54:00.888Z,19.22
2022-09-26T04:56:30.563Z,18.81
2022-09-26T04:58:59.391Z,18.62
2022-09-26T05:01:28.104Z,18.55
2022-09-26T05:03:56.369Z,18.50
2022-09-26T05:06:25.899Z,18.72
2022-09-26T05:08:56.019Z,18.42
2022-09-26T05:11:26.148Z,18.43
2022-09-26T05:13:54.085Z,18.43
2022-09-26T05:16:28.488Z,18.68
2022-09-26T05:18:58.593Z,18.12
2022-09-26T05:21:25.770Z,18.07
2022-09-26T05:24:12.575Z,17.06
2022-09-26T05:27:00.798Z,16.52
2022-09-26T05:29:27.939Z,17.48
2022-09-26T05:31:55.287Z,17.55
2022-09-26T05:34:25.131Z,17.34
2022-09-26T05:36:55.733Z,18.00
2022-09-26T05:39:46.990Z,18.49
2022-09-26T05:42:15.504Z,18.16
2022-09-26T05:44:46.821Z,18.00
2022-09-26T05:47:14.275Z,18.36
2022-09-26T05:49:41.670Z,18.97
2022-09-26T05:52:10.479Z,18.30
2022-09-26T05:54:39.672Z,16.92
2022-09-26T05:57:07.349Z,17.02
2022-09-26T05:59:34.744Z,17.56
2022-09-26T06:02:02.008Z,18.06
2022-09-26T06:04:30.820Z,18.42
2022-09-26T06:07:04.719Z,18.80
2022-09-26T06:09:31.827Z,18.67
2022-09-26T06:11:59.080Z,19.07
2022-09-26T06:14:30.509Z,19.20
2022-09-26T06:17:03.020Z,19.32
2022-09-26T06:19:34.100Z,18.91
2022-09-26T06:22:04.872Z,19.16
2022-09-26T06:24:32.420Z,19.59
2022-09-26T06:27:01.850Z,19.58
2022-09-26T06:29:33.394Z,19.83
2022-09-26T06:32:07.293Z,19.89
2022-09-26T06:34:55.591Z,19.36
2022-09-26T06:37:28.138Z,19.23
2022-09-26T06:40:01.825Z,19.34
2022-09-26T06:42:39.756Z,19.64
2022-09-26T06:45:14.955Z,19.67
2022-09-26T06:47:45.188Z,19.28
2022-09-26T06:50:13.275Z,20.04
2022-09-26T06:52:46.126Z,19.73
2022-09-26T06:55:17.677Z,20.12
2022-09-26T06:57:47.376Z,19.64
2022-09-26T07:00:19.991Z,20.11
2022-09-26T07:02:57.652Z,20.35
2022-09-26T07:05:31.971Z,21.20
2022-09-26T07:08:08.758Z,21.34
2022-09-26T07:10:43.039Z,21.18
2022-09-26T07:13:12.357Z,20.76
2022-09-26T07:15:40.806Z,21.36
2022-09-26T07:18:15.926Z,21.71
2022-09-26T07:20:47.934Z,21.58
2022-09-26T07:23:17.491Z,19.92
2022-09-26T07:25:53.561Z,20.92
2022-09-26T07:28:24.684Z,19.64
2022-09-26T07:30:57.235Z,19.15
2022-09-26T07:33:24.421Z,19.29
2022-09-26T07:35:52.180Z,19.86
2022-09-26T07:38:22.795Z,20.78
2022-09-26T07:40:54.486Z,21.39
2022-09-26T07:43:31.970Z,21.26
2022-09-26T07:46:28.394Z,21.57
2022-09-26T07:49:14.350Z,21.62
2022-09-26T07:51:41.653Z,22.49
2022-09-26T07:54:08.855Z,22.78
2022-09-26T07:56:36.005Z,23.29
2022-09-26T07:59:05.412Z,22.97
2022-09-26T08:01:33.237Z,21.78
2022-09-26T08:04:00.655Z,22.10
2022-09-26T08:06:32.715Z,22.37
2022-09-26T08:08:59.881Z,22.13
2022-09-26T08:11:27.988Z,21.26
2022-09-26T08:13:55.471Z,20.48
2022-09-26T08:16:23.729Z,20.84
2022-09-26T08:18:54.569Z,20.98
2022-09-26T08:21:25.696Z,20.49
2022-09-26T08:23:54.038Z,20.22
2022-09-26T08:26:28.941Z,20.86
2022-09-26T08:29:00.673Z,20.46
2022-09-26T08:31:34.975Z,19.88
2022-09-26T08:34:12.112Z,19.84
2022-09-26T08:37:34.390Z,20.85
2022-09-26T08:40:34.251Z,20.65
2022-09-26T08:43:47.263Z,20.26
2022-09-26T08:47:02.333Z,19.17
2022-09-26T08:50:00.583Z,19.01
2022-09-26T08:53:10.781Z,19.48
2022-09-26T08:55:58.349Z,19.47
2022-09-26T08:58:47.208Z,18.82
2022-09-26T09:01:46.183Z,19.17
2022-09-26T09:04:42.309Z,19.57
2022-09-26T09:07:24.998Z,19.55
2022-09-26T09:10:03.629Z,19.13
2022-09-26T09:13:15.873Z,18.88
2022-09-26T09:16:13.934Z,19.43
2022-09-26T09:19:06.892Z,19.27
2022-09-26T09:22:02.751Z,20.49
2022-09-26T09:24:55.274Z,20.12
2022-09-26T09:30:45.680Z,19.16
2022-09-26T09:33:23.333Z,20.04
2022-09-26T09:36:00.397Z,19.52
2022-09-26T09:38:38.257Z,20.03
2022-09-26T09:41:39.907Z,20.20
2022-09-26T09:44:43.126Z,18.53
2022-09-26T09:47:18.920Z,19.77
2022-09-26T09:49:55.224Z,19.56
2022-09-26T09:52:52.662Z,21.11
2022-09-26T09:56:16.713Z,20.47
2022-09-26T09:59:19.625Z,21.06
2022-09-26T10:02:23.666Z,20.17
2022-09-26T10:05:41.726Z,19.51
2022-09-26T10:08:43.439Z,19.62
2022-09-26T10:11:44.956Z,19.34
2022-09-26T10:14:29.761Z,19.10
2022-09-26T10:17:18.196Z,18.79
2022-09-26T10:19:46.951Z,19.58
2022-09-26T10:22:48.122Z,20.33
2022-09-26T10:25:26.834Z,20.50
2022-09-26T10:27:58.400Z,21.40
2022-09-26T10:30:35.326Z,22.65
2022-09-26T10:33:06.832Z,23.77
2022-09-26T10:35:48.142Z,23.56
2022-09-26T10:38:31.268Z,24.00
2022-09-26T10:41:05.777Z,21.95
2022-09-26T10:43:38.683Z,22.12
2022-09-26T10:46:27.624Z,22.83
2022-09-26T10:49:02.640Z,20.47
2022-09-26T10:51:42.828Z,21.56
2022-09-26T10:54:20.220Z,19.95
2022-09-26T10:57:14.031Z,20.10
2022-09-26T10:59:44.209Z,20.39
2022-09-26T11:02:22.822Z,20.25
2022-09-26T11:05:20.656Z,20.14
2022-09-26T11:07:52.366Z,20.62
2022-09-26T11:10:34.470Z,21.84
2022-09-26T11:13:19.214Z,21.00
2022-09-26T11:16:01.470Z,22.78
2022-09-26T11:18:46.485Z,21.06
2022-09-26T11:21:43.715Z,21.03
2022-09-26T11:24:30.376Z,20.32
2022-09-26T11:27:27.151Z,20.33
2022-09-26T11:30:21.044Z,21.24
2022-09-26T11:32:57.182Z,22.10
2022-09-26T11:35:53.999Z,20.69
2022-09-26T11:38:51.158Z,20.15
2022-09-26T11:42:01.300Z,20.52
2022-09-26T11:44:44.860Z,20.92
2022-09-26T11:47:54.545Z,20.16
2022-09-26T11:51:15.838Z,20.45
2022-09-26T11:54:08.157Z,20.21
2022-09-26T11:57:03.598Z,20.03
2022-09-26T11:59:37.595Z,19.26
2022-09-26T12:02:35.450Z,19.35
2022-09-26T12:05:14.270Z,19.59
2022-09-26T12:07:57.550Z,19.69
2022-09-26T12:10:58.381Z,19.46
2022-09-26T12:13:53.689Z,18.96
2022-09-26T12:17:00.959Z,19.39
2022-09-26T12:20:08.186Z,20.18
2022-09-26T12:23:06.373Z,20.11
2022-09-26T12:26:05.808Z,20.07
2022-09-26T12:29:37.467Z,20.48
2022-09-26T12:32:41.812Z,20.44
2022-09-26T12:35:38.176Z,20.44
2022-09-26T12:38:56.382Z,20.79
2022-09-26T12:42:14.511Z,22.98
2022-09-26T12:45:43.876Z,23.27
2022-09-26T12:48:36.834Z,24.51
2022-09-26T12:51:47.212Z,25.97
2022-09-26T12:54:36.849Z,27.73
2022-09-26T12:57:44.322Z,30.34
2022-09-26T13:00:24.129Z,34.03
2022-09-26T13:03:35.629Z,31.50
2022-09-26T13:07:17.782Z,29.78
2022-09-26T13:09:55.676Z,29.09
2022-09-26T13:12:36.170Z,28.41
2022-09-26T13:16:00.399Z,27.98
2022-09-26T13:18:43.616Z,27.08
2022-09-26T13:21:19.627Z,26.03
2022-09-26T13:24:08.729Z,24.92
2022-09-26T13:26:48.478Z,23.91
2022-09-26T13:29:33.853Z,23.65
2022-09-26T13:32:17.522Z,22.75
2022-09-26T13:35:04.891Z,23.32
2022-09-26T13:38:14.472Z,21.66
2022-09-26T13:40:59.804Z,19.99
2022-09-26T13:44:09.296Z,21.54
2022-09-26T13:47:04.611Z,24.25
2022-09-26T13:49:43.115Z,25.93
2022-09-26T13:52:28.180Z,29.65
2022-09-26T13:55:03.013Z,34.33
2022-09-26T13:57:36.061Z,33.51
2022-09-26T14:00:32.321Z,28.89
2022-09-26T14:04:08.022Z,23.24
2022-09-26T14:06:35.452Z,26.30
2022-09-26T14:09:28.869Z,26.36
2022-09-26T14:12:59.825Z,24.12
2022-09-26T14:15:49.175Z,25.11
2022-09-26T14:18:47.648Z,23.87
2022-09-26T14:21:39.070Z,23.79
2022-09-26T14:24:44.943Z,22.69
2022-09-26T14:27:12.644Z,22.57
2022-09-26T14:29:46.666Z,21.36
2022-09-26T14:32:28.279Z,24.97
2022-09-26T14:35:03.036Z,24.68
2022-09-26T14:37:42.565Z,21.66
2022-09-26T14:40:33.889Z,21.60
2022-09-26T14:43:33.483Z,21.05
2022-09-26T14:46:16.038Z,21.39
2022-09-26T14:48:47.533Z,20.89
2022-09-26T14:51:29.860Z,21.31
2022-09-26T14:54:07.456Z,21.80
2022-09-26T14:56:43.152Z,21.13
2022-09-26T14:59:18.837Z,21.80
2022-09-26T15:01:47.975Z,21.73
2022-09-26T15:04:21.616Z,22.48
2022-09-26T15:07:02.026Z,21.59
2022-09-26T15:10:25.528Z,21.65
2022-09-26T15:13:10.046Z,22.18
2022-09-26T15:16:17.547Z,22.63
2022-09-26T15:19:11.763Z,22.38
2022-09-26T15:22:21.838Z,24.19
2022-09-26T15:25:08.856Z,24.27
2022-09-26T15:27:45.223Z,24.28
2022-09-26T15:30:32.867Z,23.02
2022-09-26T15:33:05.486Z,23.63
2022-09-26T15:35:35.995Z,23.51
2022-09-26T15:38:14.102Z,22.68
2022-09-26T15:40:41.617Z,24.38
2022-09-26T15:43:24.029Z,27.28
2022-09-26T15:46:04.550Z,25.80
2022-09-26T15:48:35.222Z,25.89
2022-09-26T15:51:29.358Z,25.22
2022-09-26T15:54:22.435Z,24.36
2022-09-26T15:57:03.479Z,22.78
2022-09-26T15:59:47.034Z,21.80
2022-09-26T16:02:37.212Z,23.85
2022-09-26T16:05:12.720Z,23.53
2022-09-26T16:07:50.352Z,22.71
2022-09-26T16:10:35.664Z,21.74
2022-09-26T16:13:06.662Z,21.09
2022-09-26T16:15:35.888Z,20.07
2022-09-26T16:18:09.505Z,19.84
2022-09-26T16:20:39.125Z,20.05
2022-09-26T16:23:27.544Z,20.48
2022-09-26T16:25:59.391Z,20.08
2022-09-26T16:28:45.416Z,19.60
2022-09-26T16:31:38.817Z,20.04
2022-09-26T16:34:44.475Z,19.46
2022-09-26T16:37:25.586Z,19.38
2022-09-26T16:40:01.151Z,19.20
2022-09-26T16:42:35.135Z,18.76
2022-09-26T16:45:14.636Z,19.06
2022-09-26T16:47:52.397Z,19.24
2022-09-26T16:50:34.678Z,18.77
2022-09-26T16:53:10.996Z,19.23
2022-09-26T16:55:42.514Z,19.18
2022-09-26T16:58:17.900Z,18.98
2022-09-26T17:01:18.253Z,19.03
2022-09-26T17:03:57.232Z,18.88
2022-09-26T17:06:30.141Z,19.52
2022-09-26T17:09:16.495Z,20.05
2022-09-26T17:11:49.381Z,19.63
2022-09-26T17:14:30.059Z,18.77
2022-09-26T17:17:02.179Z,19.02
2022-09-26T17:19:46.562Z,18.84
2022-09-26T17:22:22.852Z,19.14
2022-09-26T17:24:54.684Z,19.14
2022-09-26T17:27:34.060Z,18.60
2022-09-26T17:30:12.120Z,19.11
2022-09-26T17:32:49.924Z,19.48
2022-09-26T17:35:31.007Z,18.79
2022-09-26T17:38:01.973Z,18.80
2022-09-26T17:40:35.812Z,18.16
2022-09-26T17:43:06.469Z,18.64
2022-09-26T17:45:46.105Z,18.48
2022-09-26T17:48:34.772Z,18.43
2022-09-26T17:51:10.017Z,18.27
2022-09-26T17:53:50.099Z,18.31
2022-09-26T17:56:25.838Z,18.38
2022-09-26T17:58:59.123Z,18.09
2022-09-26T18:01:35.493Z,18.16
2022-09-26T18:04:07.781Z,17.91
2022-09-26T18:06:37.756Z,18.11
2022-09-26T18:09:11.806Z,17.99
2022-09-26T18:11:42.474Z,17.63
2022-09-26T18:14:18.280Z,17.79
2022-09-26T18:16:52.436Z,17.65
2022-09-26T18:19:22.133Z,17.67
2022-09-26T18:21:57.598Z,17.81
2022-09-26T18:24:34.954Z,17.41
2022-09-26T18:27:07.953Z,17.55
2022-09-26T18:29:41.863Z,17.44
2022-09-26T18:32:34.799Z,17.55
2022-09-26T18:35:03.130Z,17.68
2022-09-26T18:37:33.493Z,17.67
2022-09-26T18:40:04.429Z,17.75
2022-09-26T18:42:34.762Z,17.73
2022-09-26T18:45:08.461Z,18.07
2022-09-26T18:47:46.515Z,17.60
2022-09-26T18:50:30.930Z,18.05
2022-09-26T18:53:00.154Z,18.32
2022-09-26T18:55:49.653Z,17.77
2022-09-26T18:58:27.356Z,18.90
2022-09-26T19:01:15.321Z,19.04
2022-09-26T19:03:49.249Z,18.86
2022-09-26T19:06:44.217Z,18.17
2022-09-26T19:09:25.168Z,19.00
2022-09-26T19:11:56.890Z,18.80
2022-09-26T19:14:42.428Z,19.09
2022-09-26T19:17:12.859Z,19.02
2022-09-26T19:19:41.987Z,18.83
2022-09-26T19:22:19.993Z,19.17
2022-09-26T19:25:02.952Z,18.98
2022-09-26T19:27:50.565Z,19.24
2022-09-26T19:30:25.015Z,19.10
2022-09-26T19:33:02.578Z,19.34
2022-09-26T19:35:42.016Z,19.11
2022-09-26T19:38:28.987Z,19.09
2022-09-26T19:40:59.940Z,19.05
2022-09-26T19:43:28.443Z,18.14
2022-09-26T19:46:02.941Z,17.98
2022-09-26T19:48:38.914Z,18.42
2022-09-26T19:51:15.436Z,18.29
2022-09-26T19:53:48.916Z,18.26
2022-09-26T19:56:20.029Z,18.40
2022-09-26T19:58:51.277Z,18.33
2022-09-26T20:01:25.995Z,18.52
2022-09-26T20:03:55.119Z,18.36
2022-09-26T20:06:30.075Z,18.38
2022-09-26T20:09:02.601Z,18.76
2022-09-26T20:11:32.848Z,18.64
2022-09-26T20:14:20.498Z,18.50
2022-09-26T20:16:58.558Z,17.46
2022-09-26T20:19:38.308Z,17.61
2022-09-26T20:22:18.344Z,18.20
2022-09-26T20:24:50.161Z,18.50
2022-09-26T20:27:26.811Z,18.41
2022-09-26T20:30:15.131Z,17.95
2022-09-26T20:32:50.497Z,18.44
2022-09-26T20:35:23.930Z,18.63
2022-09-26T20:37:56.046Z,18.76
2022-09-26T20:40:25.754Z,18.61
2022-09-26T20:43:04.363Z,18.19
2022-09-26T20:45:41.233Z,17.96
2022-09-26T20:48:25.691Z,18.02
2022-09-26T20:50:58.716Z,18.33
2022-09-26T20:53:28.737Z,18.26
2022-09-26T20:55:58.691Z,18.14
2022-09-26T20:58:27.889Z,17.89
2022-09-26T21:00:56.443Z,17.76
2022-09-26T21:03:32.161Z,17.69
2022-09-26T21:06:22.698Z,17.98
2022-09-26T21:09:07.171Z,18.44
2022-09-26T21:11:41.532Z,18.42
2022-09-26T21:14:09.534Z,18.39
2022-09-26T21:16:58.530Z,17.93
2022-09-26T21:19:33.746Z,17.74
2022-09-26T21:22:06.952Z,17.79
2022-09-26T21:24:55.551Z,17.81
2022-09-26T21:27:31.309Z,17.46
2022-09-26T21:30:04.384Z,17.59
2022-09-26T21:32:37.525Z,17.49
2022-09-26T21:35:13.337Z,17.62
2022-09-26T21:38:08.015Z,17.49
2022-09-26T21:40:47.558Z,17.97
2022-09-26T21:43:23.066Z,18.04
2022-09-26T21:48:37.471Z,17.89
2022-09-26T21:51:31.602Z,17.19
2022-09-26T21:54:34.943Z,17.75
2022-09-26T21:57:38.010Z,18.16
2022-09-26T22:00:22.272Z,17.89
2022-09-26T22:02:49.864Z,18.26
2022-09-26T22:05:18.624Z,18.18
2022-09-26T22:07:48.547Z,18.32
2022-09-26T22:10:32.827Z,17.88
2022-09-26T22:13:16.372Z,18.10
2022-09-26T22:15:52.896Z,18.04
2022-09-26T22:18:32.157Z,17.42
2022-09-26T22:21:04.811Z,16.98
2022-09-26T22:23:41.048Z,17.29
2022-09-26T22:26:14.336Z,17.19
2022-09-26T22:28:50.539Z,17.19
2022-09-26T22:31:27.377Z,17.31
2022-09-26T22:33:59.569Z,17.37
2022-09-26T22:36:35.550Z,17.77
2022-09-26T22:39:03.927Z,17.51
2022-09-26T22:41:34.410Z,17.59
2022-09-26T22:44:13.087Z,17.80
2022-09-26T22:46:43.751Z,17.94
2022-09-26T22:49:17.078Z,17.67
2022-09-26T22:51:48.762Z,18.00
2022-09-26T22:54:47.211Z,17.88
2022-09-26T22:57:42.777Z,17.57
2022-09-26T23:00:25.083Z,17.67
2022-09-26T23:03:00.738Z,17.64
2022-09-26T23:05:35.604Z,17.34
2022-09-26T23:13:47.648Z,17.02
2022-09-26T23:16:35.184Z,17.28
2022-09-26T23:19:06.302Z,17.35
2022-09-26T23:21:41.779Z,17.40
2022-09-26T23:24:11.765Z,17.39
2022-09-26T23:26:54.921Z,17.43
2022-09-26T23:29:22.348Z,17.27
2022-09-26T23:31:51.099Z,17.38
2022-09-26T23:34:21.156Z,17.07
2022-09-26T23:36:51.447Z,17.11
2022-09-26T23:39:24.582Z,16.98
2022-09-26T23:42:04.995Z,17.09
2022-09-26T23:44:43.955Z,16.93
2022-09-26T23:47:23.453Z,16.96
2022-09-26T23:49:55.456Z,16.87
2022-09-26T23:52:34.593Z,17.05
2022-09-26T23:55:02.321Z,16.79
2022-09-26T23:57:37.988Z,16.73
